sensor_id;sensor_type;location;lat;lon;timestamp;P1;durP1;ratioP1;P2;durP2;ratioP2
24279;SDS011;12395;42.808;23.408;2022-08-04T00:01:28;5.80;;;3.88;;
24279;SDS011;12395;42.808;23.408;2022-08-04T00:04:12;5.38;;;3.97;;
24279;SDS011;12395;42.808;23.408;2022-08-04T00:06:45;6.95;;;4.28;;
24279;SDS011;12395;42.808;23.408;2022-08-04T00:09:16;5.05;;;3.65;;
24279;SDS011;12395;42.808;23.408;2022-08-04T00:12:02;5.57;;;3.70;;
24279;SDS011;12395;42.808;23.408;2022-08-04T00:14:35;5.18;;;3.67;;
24279;SDS011;12395;42.808;23.408;2022-08-04T00:17:05;6.43;;;4.30;;
24279;SDS011;12395;42.808;23.408;2022-08-04T00:19:35;6.20;;;4.37;;
24279;SDS011;12395;42.808;23.408;2022-08-04T00:22:12;6.70;;;4.50;;
24279;SDS011;12395;42.808;23.408;2022-08-04T00:24:38;6.38;;;4.38;;
24279;SDS011;12395;42.808;23.408;2022-08-04T00:27:05;6.90;;;4.13;;
24279;SDS011;12395;42.808;23.408;2022-08-04T00:29:32;7.60;;;4.95;;
24279;SDS011;12395;42.808;23.408;2022-08-04T00:31:59;5.93;;;4.60;;
24279;SDS011;12395;42.808;23.408;2022-08-04T00:34:27;6.43;;;4.32;;
24279;SDS011;12395;42.808;23.408;2022-08-04T00:36:55;6.25;;;4.13;;
24279;SDS011;12395;42.808;23.408;2022-08-04T00:39:21;6.15;;;4.10;;
24279;SDS011;12395;42.808;23.408;2022-08-04T00:45:02;6.57;;;4.22;;
24279;SDS011;12395;42.808;23.408;2022-08-04T00:53:18;6.30;;;4.38;;
24279;SDS011;12395;42.808;23.408;2022-08-04T00:58:34;5.63;;;4.10;;
24279;SDS011;12395;42.808;23.408;2022-08-04T01:04:02;4.72;;;3.72;;
24279;SDS011;12395;42.808;23.408;2022-08-04T01:12:22;6.45;;;4.03;;
24279;SDS011;12395;42.808;23.408;2022-08-04T01:20:07;6.47;;;4.45;;
24279;SDS011;12395;42.808;23.408;2022-08-04T01:25:45;5.78;;;4.13;;
24279;SDS011;12395;42.808;23.408;2022-08-04T01:34:26;7.13;;;4.90;;
24279;SDS011;12395;42.808;23.408;2022-08-04T01:39:35;7.70;;;5.13;;
24279;SDS011;12395;42.808;23.408;2022-08-04T01:42:07;7.38;;;5.05;;
24279;SDS011;12395;42.808;23.408;2022-08-04T01:44:34;8.07;;;5.22;;
24279;SDS011;12395;42.808;23.408;2022-08-04T01:47:01;8.73;;;5.05;;
24279;SDS011;12395;42.808;23.408;2022-08-04T01:49:29;8.95;;;5.03;;
24279;SDS011;12395;42.808;23.408;2022-08-04T01:51:56;6.70;;;4.97;;
24279;SDS011;12395;42.808;23.408;2022-08-04T01:54:22;6.85;;;5.15;;
24279;SDS011;12395;42.808;23.408;2022-08-04T01:56:49;8.10;;;5.53;;
24279;SDS011;12395;42.808;23.408;2022-08-04T01:59:17;8.02;;;5.20;;
24279;SDS011;12395;42.808;23.408;2022-08-04T02:01:44;6.00;;;4.40;;
24279;SDS011;12395;42.808;23.408;2022-08-04T02:04:17;6.88;;;4.47;;
24279;SDS011;12395;42.808;23.408;2022-08-04T02:18:32;6.13;;;4.20;;
24279;SDS011;12395;42.808;23.408;2022-08-04T02:20:37;6.97;;;5.05;;
24279;SDS011;12395;42.808;23.408;2022-08-04T02:23:05;6.97;;;5.20;;
24279;SDS011;12395;42.808;23.408;2022-08-04T02:25:38;6.47;;;4.60;;
24279;SDS011;12395;42.808;23.408;2022-08-04T02:33:30;5.68;;;4.35;;
24279;SDS011;12395;42.808;23.408;2022-08-04T02:36:02;8.30;;;5.18;;
24279;SDS011;12395;42.808;23.408;2022-08-04T02:38:46;8.23;;;5.05;;
24279;SDS011;12395;42.808;23.408;2022-08-04T02:41:24;6.43;;;4.65;;
24279;SDS011;12395;42.808;23.408;2022-08-04T02:46:17;6.55;;;4.47;;
24279;SDS011;12395;42.808;23.408;2022-08-04T02:48:44;6.93;;;4.55;;
24279;SDS011;12395;42.808;23.408;2022-08-04T02:51:12;5.55;;;4.22;;
24279;SDS011;12395;42.808;23.408;2022-08-04T02:53:39;5.40;;;4.03;;
24279;SDS011;12395;42.808;23.408;2022-08-04T02:56:06;7.05;;;4.28;;
24279;SDS011;12395;42.808;23.408;2022-08-04T02:58:33;6.47;;;4.13;;
24279;SDS011;12395;42.808;23.408;2022-08-04T03:01:01;6.30;;;4.18;;
24279;SDS011;12395;42.808;23.408;2022-08-04T03:03:34;6.95;;;4.00;;
24279;SDS011;12395;42.808;23.408;2022-08-04T03:08:58;8.57;;;5.07;;
24279;SDS011;12395;42.808;23.408;2022-08-04T03:11:50;7.57;;;4.80;;
24279;SDS011;12395;42.808;23.408;2022-08-04T03:45:44;6.25;;;4.20;;
24279;SDS011;12395;42.808;23.408;2022-08-04T03:54:11;6.55;;;4.32;;
24279;SDS011;12395;42.808;23.408;2022-08-04T03:59:42;5.82;;;4.30;;
24279;SDS011;12395;42.808;23.408;2022-08-04T04:02:38;6.13;;;3.97;;
24279;SDS011;12395;42.808;23.408;2022-08-04T04:18:18;7.07;;;4.30;;
24279;SDS011;12395;42.808;23.408;2022-08-04T04:24:09;6.60;;;4.18;;
24279;SDS011;12395;42.808;23.408;2022-08-04T04:46:10;5.07;;;3.83;;
24279;SDS011;12395;42.808;23.408;2022-08-04T04:48:43;5.40;;;3.95;;
24279;SDS011;12395;42.808;23.408;2022-08-04T04:51:22;6.93;;;3.92;;
24279;SDS011;12395;42.808;23.408;2022-08-04T04:54:10;5.93;;;4.28;;
24279;SDS011;12395;42.808;23.408;2022-08-04T04:59:26;5.30;;;3.75;;
24279;SDS011;12395;42.808;23.408;2022-08-04T05:16:50;8.98;;;5.43;;
24279;SDS011;12395;42.808;23.408;2022-08-04T05:19:33;7.47;;;5.50;;
24279;SDS011;12395;42.808;23.408;2022-08-04T05:22:05;10.10;;;5.57;;
24279;SDS011;12395;42.808;23.408;2022-08-04T05:24:36;8.05;;;5.57;;
24279;SDS011;12395;42.808;23.408;2022-08-04T05:27:08;9.30;;;5.90;;
24279;SDS011;12395;42.808;23.408;2022-08-04T05:29:41;8.95;;;5.55;;
24279;SDS011;12395;42.808;23.408;2022-08-04T05:32:15;9.73;;;5.85;;
24279;SDS011;12395;42.808;23.408;2022-08-04T05:35:30;10.43;;;6.07;;
24279;SDS011;12395;42.808;23.408;2022-08-04T05:37:39;12.50;;;5.80;;
24279;SDS011;12395;42.808;23.408;2022-08-04T05:40:08;7.93;;;5.93;;
24279;SDS011;12395;42.808;23.408;2022-08-04T05:45:03;9.30;;;5.95;;
24279;SDS011;12395;42.808;23.408;2022-08-04T05:47:32;8.63;;;6.22;;
24279;SDS011;12395;42.808;23.408;2022-08-04T05:49:59;9.20;;;6.20;;
24279;SDS011;12395;42.808;23.408;2022-08-04T05:52:26;7.53;;;5.80;;
24279;SDS011;12395;42.808;23.408;2022-08-04T05:54:53;8.83;;;6.03;;
24279;SDS011;12395;42.808;23.408;2022-08-04T05:57:20;7.55;;;5.63;;
24279;SDS011;12395;42.808;23.408;2022-08-04T05:59:46;7.47;;;5.20;;
24279;SDS011;12395;42.808;23.408;2022-08-04T06:02:16;7.93;;;5.28;;
24279;SDS011;12395;42.808;23.408;2022-08-04T06:04:44;6.55;;;4.90;;
24279;SDS011;12395;42.808;23.408;2022-08-04T06:07:13;8.38;;;5.47;;
24279;SDS011;12395;42.808;23.408;2022-08-04T06:09:39;8.35;;;5.35;;
24279;SDS011;12395;42.808;23.408;2022-08-04T06:12:48;6.55;;;5.05;;
24279;SDS011;12395;42.808;23.408;2022-08-04T06:14:56;7.55;;;5.05;;
24279;SDS011;12395;42.808;23.408;2022-08-04T06:17:27;6.32;;;5.00;;
24279;SDS011;12395;42.808;23.408;2022-08-04T06:19:55;8.63;;;4.93;;
24279;SDS011;12395;42.808;23.408;2022-08-04T06:22:22;6.22;;;4.68;;
24279;SDS011;12395;42.808;23.408;2022-08-04T06:27:19;8.02;;;4.60;;
24279;SDS011;12395;42.808;23.408;2022-08-04T06:29:46;5.25;;;4.55;;
24279;SDS011;12395;42.808;23.408;2022-08-04T06:32:13;5.60;;;4.28;;
24279;SDS011;12395;42.808;23.408;2022-08-04T06:35:00;5.28;;;4.20;;
24279;SDS011;12395;42.808;23.408;2022-08-04T06:37:28;8.23;;;4.32;;
24279;SDS011;12395;42.808;23.408;2022-08-04T06:39:54;8.10;;;4.57;;
24279;SDS011;12395;42.808;23.408;2022-08-04T06:42:21;11.00;;;5.28;;
24279;SDS011;12395;42.808;23.408;2022-08-04T06:44:50;11.43;;;5.57;;
24279;SDS011;12395;42.808;23.408;2022-08-04T06:47:22;8.75;;;5.20;;
24279;SDS011;12395;42.808;23.408;2022-08-04T06:49:52;7.13;;;5.10;;
24279;SDS011;12395;42.808;23.408;2022-08-04T06:52:19;6.97;;;5.20;;
24279;SDS011;12395;42.808;23.408;2022-08-04T06:54:49;6.57;;;5.10;;
24279;SDS011;12395;42.808;23.408;2022-08-04T06:57:21;8.63;;;5.32;;
24279;SDS011;12395;42.808;23.408;2022-08-04T06:59:50;6.85;;;5.07;;
24279;SDS011;12395;42.808;23.408;2022-08-04T07:02:21;7.32;;;5.07;;
24279;SDS011;12395;42.808;23.408;2022-08-04T07:04:50;7.57;;;4.72;;
24279;SDS011;12395;42.808;23.408;2022-08-04T07:07:15;6.65;;;4.93;;
24279;SDS011;12395;42.808;23.408;2022-08-04T07:09:42;9.23;;;4.87;;
24279;SDS011;12395;42.808;23.408;2022-08-04T07:12:08;9.05;;;5.05;;
24279;SDS011;12395;42.808;23.408;2022-08-04T07:17:04;6.75;;;4.95;;
24279;SDS011;12395;42.808;23.408;2022-08-04T07:19:32;7.07;;;4.93;;
24279;SDS011;12395;42.808;23.408;2022-08-04T07:21:59;7.53;;;5.03;;
24279;SDS011;12395;42.808;23.408;2022-08-04T07:24:29;7.32;;;5.00;;
24279;SDS011;12395;42.808;23.408;2022-08-04T07:26:55;6.70;;;4.78;;
24279;SDS011;12395;42.808;23.408;2022-08-04T07:29:21;6.78;;;4.70;;
24279;SDS011;12395;42.808;23.408;2022-08-04T07:31:47;7.80;;;4.80;;
24279;SDS011;12395;42.808;23.408;2022-08-04T07:34:14;6.53;;;4.68;;
24279;SDS011;12395;42.808;23.408;2022-08-04T07:36:39;5.72;;;4.50;;
24279;SDS011;12395;42.808;23.408;2022-08-04T07:39:05;6.82;;;4.80;;
24279;SDS011;12395;42.808;23.408;2022-08-04T07:41:30;5.25;;;4.40;;
24279;SDS011;12395;42.808;23.408;2022-08-04T07:43:56;7.82;;;4.53;;
24279;SDS011;12395;42.808;23.408;2022-08-04T07:46:23;6.57;;;4.70;;
24279;SDS011;12395;42.808;23.408;2022-08-04T07:48:49;6.60;;;4.50;;
24279;SDS011;12395;42.808;23.408;2022-08-04T07:51:15;5.88;;;4.30;;
24279;SDS011;12395;42.808;23.408;2022-08-04T07:53:41;5.68;;;4.40;;
24279;SDS011;12395;42.808;23.408;2022-08-04T07:56:08;5.70;;;4.40;;
24279;SDS011;12395;42.808;23.408;2022-08-04T07:58:34;6.53;;;4.20;;
24279;SDS011;12395;42.808;23.408;2022-08-04T08:01:00;7.05;;;4.70;;
24279;SDS011;12395;42.808;23.408;2022-08-04T08:03:26;6.78;;;4.65;;
24279;SDS011;12395;42.808;23.408;2022-08-04T08:05:52;5.32;;;4.28;;
24279;SDS011;12395;42.808;23.408;2022-08-04T08:08:17;5.63;;;4.63;;
24279;SDS011;12395;42.808;23.408;2022-08-04T08:10:46;7.63;;;4.32;;
24279;SDS011;12395;42.808;23.408;2022-08-04T08:13:12;4.53;;;4.10;;
24279;SDS011;12395;42.808;23.408;2022-08-04T08:15:40;4.72;;;4.20;;
24279;SDS011;12395;42.808;23.408;2022-08-04T08:18:07;7.20;;;4.50;;
24279;SDS011;12395;42.808;23.408;2022-08-04T08:20:33;6.05;;;4.03;;
24279;SDS011;12395;42.808;23.408;2022-08-04T08:23:00;5.05;;;4.15;;
24279;SDS011;12395;42.808;23.408;2022-08-04T08:25:26;4.43;;;3.90;;
24279;SDS011;12395;42.808;23.408;2022-08-04T08:27:51;5.55;;;4.00;;
24279;SDS011;12395;42.808;23.408;2022-08-04T08:30:17;5.78;;;4.10;;
24279;SDS011;12395;42.808;23.408;2022-08-04T08:32:42;5.60;;;4.40;;
24279;SDS011;12395;42.808;23.408;2022-08-04T08:35:08;4.72;;;3.70;;
24279;SDS011;12395;42.808;23.408;2022-08-04T08:37:37;5.57;;;4.20;;
24279;SDS011;12395;42.808;23.408;2022-08-04T09:07:48;6.80;;;3.67;;
24279;SDS011;12395;42.808;23.408;2022-08-04T09:13:09;5.45;;;3.50;;
24279;SDS011;12395;42.808;23.408;2022-08-04T09:18:33;3.72;;;3.30;;
24279;SDS011;12395;42.808;23.408;2022-08-04T09:24:10;4.30;;;3.40;;
24279;SDS011;12395;42.808;23.408;2022-08-04T09:26:57;4.38;;;3.30;;
24279;SDS011;12395;42.808;23.408;2022-08-04T09:48:17;3.20;;;2.90;;
24279;SDS011;12395;42.808;23.408;2022-08-04T09:50:51;6.43;;;3.30;;
24279;SDS011;12395;42.808;23.408;2022-08-04T09:58:59;5.32;;;3.70;;
24279;SDS011;12395;42.808;23.408;2022-08-04T10:01:31;4.10;;;3.70;;
24279;SDS011;12395;42.808;23.408;2022-08-04T10:03:59;6.70;;;3.47;;
24279;SDS011;12395;42.808;23.408;2022-08-04T10:12:07;5.40;;;3.53;;
24279;SDS011;12395;42.808;23.408;2022-08-04T10:20:18;3.60;;;3.30;;
24279;SDS011;12395;42.808;23.408;2022-08-04T10:23:08;5.55;;;3.50;;
24279;SDS011;12395;42.808;23.408;2022-08-04T10:28:21;3.80;;;3.50;;
24279;SDS011;12395;42.808;23.408;2022-08-04T10:30:51;5.18;;;3.53;;
24279;SDS011;12395;42.808;23.408;2022-08-04T10:33:27;5.05;;;3.50;;
24279;SDS011;12395;42.808;23.408;2022-08-04T10:36:00;6.43;;;3.65;;
24279;SDS011;12395;42.808;23.408;2022-08-04T10:38:31;4.18;;;3.20;;
24279;SDS011;12395;42.808;23.408;2022-08-04T10:46:36;4.65;;;3.30;;
24279;SDS011;12395;42.808;23.408;2022-08-04T10:49:09;3.63;;;3.33;;
24279;SDS011;12395;42.808;23.408;2022-08-04T10:52:00;3.97;;;3.30;;
24279;SDS011;12395;42.808;23.408;2022-08-04T10:57:38;4.32;;;3.35;;
24279;SDS011;12395;42.808;23.408;2022-08-04T11:00:17;4.60;;;3.50;;
24279;SDS011;12395;42.808;23.408;2022-08-04T11:02:51;4.93;;;3.28;;
24279;SDS011;12395;42.808;23.408;2022-08-04T11:08:32;5.20;;;3.20;;
24279;SDS011;12395;42.808;23.408;2022-08-04T11:11:12;5.15;;;3.50;;
24279;SDS011;12395;42.808;23.408;2022-08-04T11:13:58;4.63;;;3.30;;
24279;SDS011;12395;42.808;23.408;2022-08-04T11:16:32;4.50;;;3.17;;
24279;SDS011;12395;42.808;23.408;2022-08-04T11:21:31;6.30;;;3.60;;
24279;SDS011;12395;42.808;23.408;2022-08-04T11:24:02;3.30;;;3.00;;
24279;SDS011;12395;42.808;23.408;2022-08-04T11:26:45;3.83;;;2.90;;
24279;SDS011;12395;42.808;23.408;2022-08-04T11:31:51;3.67;;;3.10;;
24279;SDS011;12395;42.808;23.408;2022-08-04T11:34:21;3.67;;;3.05;;
24279;SDS011;12395;42.808;23.408;2022-08-04T11:39:52;4.57;;;3.13;;
24279;SDS011;12395;42.808;23.408;2022-08-04T11:42:30;3.70;;;2.88;;
24279;SDS011;12395;42.808;23.408;2022-08-04T11:45:15;6.30;;;3.00;;
24279;SDS011;12395;42.808;23.408;2022-08-04T11:47:49;5.38;;;3.08;;
24279;SDS011;12395;42.808;23.408;2022-08-04T11:52:46;5.32;;;3.00;;
24279;SDS011;12395;42.808;23.408;2022-08-04T11:55:15;4.00;;;3.10;;
24279;SDS011;12395;42.808;23.408;2022-08-04T11:57:45;5.05;;;2.75;;
24279;SDS011;12395;42.808;23.408;2022-08-04T12:00:12;5.47;;;3.30;;
24279;SDS011;12395;42.808;23.408;2022-08-04T12:05:19;5.13;;;2.97;;
24279;SDS011;12395;42.808;23.408;2022-08-04T12:08:02;3.28;;;2.75;;
24279;SDS011;12395;42.808;23.408;2022-08-04T12:18:42;3.83;;;2.80;;
24279;SDS011;12395;42.808;23.408;2022-08-04T12:21:22;4.22;;;2.60;;
24279;SDS011;12395;42.808;23.408;2022-08-04T12:23:54;4.82;;;2.80;;
24279;SDS011;12395;42.808;23.408;2022-08-04T12:26:27;5.32;;;3.00;;
24279;SDS011;12395;42.808;23.408;2022-08-04T12:29:00;2.78;;;2.50;;
24279;SDS011;12395;42.808;23.408;2022-08-04T12:34:11;4.57;;;3.03;;
24279;SDS011;12395;42.808;23.408;2022-08-04T12:39:19;4.07;;;2.80;;
24279;SDS011;12395;42.808;23.408;2022-08-04T12:44:36;3.75;;;2.88;;
24279;SDS011;12395;42.808;23.408;2022-08-04T12:47:04;3.13;;;2.58;;
24279;SDS011;12395;42.808;23.408;2022-08-04T12:49:33;3.33;;;2.95;;
24279;SDS011;12395;42.808;23.408;2022-08-04T12:52:00;5.05;;;2.90;;
24279;SDS011;12395;42.808;23.408;2022-08-04T12:54:30;4.80;;;2.90;;
24279;SDS011;12395;42.808;23.408;2022-08-04T12:56:57;4.07;;;3.05;;
24279;SDS011;12395;42.808;23.408;2022-08-04T12:59:25;5.47;;;3.03;;
24279;SDS011;12395;42.808;23.408;2022-08-04T13:01:51;3.03;;;2.78;;
24279;SDS011;12395;42.808;23.408;2022-08-04T13:04:19;3.53;;;2.90;;
24279;SDS011;12395;42.808;23.408;2022-08-04T13:06:54;3.33;;;3.03;;
24279;SDS011;12395;42.808;23.408;2022-08-04T13:09:25;3.33;;;3.03;;
24279;SDS011;12395;42.808;23.408;2022-08-04T13:11:58;4.78;;;2.97;;
24279;SDS011;12395;42.808;23.408;2022-08-04T13:14:30;3.58;;;2.90;;
24279;SDS011;12395;42.808;23.408;2022-08-04T13:17:01;5.43;;;2.83;;
24279;SDS011;12395;42.808;23.408;2022-08-04T13:21:54;5.00;;;2.97;;
24279;SDS011;12395;42.808;23.408;2022-08-04T13:24:22;4.35;;;3.13;;
24279;SDS011;12395;42.808;23.408;2022-08-04T13:29:19;2.92;;;2.60;;
24279;SDS011;12395;42.808;23.408;2022-08-04T13:31:47;3.17;;;2.60;;
24279;SDS011;12395;42.808;23.408;2022-08-04T13:34:14;3.25;;;2.95;;
24279;SDS011;12395;42.808;23.408;2022-08-04T13:36:40;4.65;;;3.80;;
24279;SDS011;12395;42.808;23.408;2022-08-04T13:39:08;4.95;;;4.43;;
24279;SDS011;12395;42.808;23.408;2022-08-04T13:41:42;4.47;;;3.10;;
24279;SDS011;12395;42.808;23.408;2022-08-04T13:44:11;4.53;;;2.70;;
24279;SDS011;12395;42.808;23.408;2022-08-04T13:50:03;3.10;;;2.58;;
24279;SDS011;12395;42.808;23.408;2022-08-04T13:52:34;3.50;;;2.58;;
24279;SDS011;12395;42.808;23.408;2022-08-04T13:54:59;3.08;;;2.78;;
24279;SDS011;12395;42.808;23.408;2022-08-04T13:57:29;4.10;;;2.75;;
24279;SDS011;12395;42.808;23.408;2022-08-04T13:59:58;3.65;;;2.80;;
24279;SDS011;12395;42.808;23.408;2022-08-04T14:05:06;4.53;;;2.72;;
24279;SDS011;12395;42.808;23.408;2022-08-04T14:07:39;4.60;;;2.78;;
24279;SDS011;12395;42.808;23.408;2022-08-04T14:10:12;3.45;;;2.70;;
24279;SDS011;12395;42.808;23.408;2022-08-04T14:12:45;5.30;;;2.70;;
24279;SDS011;12395;42.808;23.408;2022-08-04T14:15:31;3.53;;;2.60;;
24279;SDS011;12395;42.808;23.408;2022-08-04T14:18:15;2.55;;;2.35;;
24279;SDS011;12395;42.808;23.408;2022-08-04T14:23:42;3.92;;;2.80;;
24279;SDS011;12395;42.808;23.408;2022-08-04T14:28:51;3.40;;;2.67;;
24279;SDS011;12395;42.808;23.408;2022-08-04T14:31:21;3.67;;;2.67;;
24279;SDS011;12395;42.808;23.408;2022-08-04T14:33:48;2.70;;;2.50;;
24279;SDS011;12395;42.808;23.408;2022-08-04T14:36:16;4.53;;;2.85;;
24279;SDS011;12395;42.808;23.408;2022-08-04T14:41:13;4.07;;;2.90;;
24279;SDS011;12395;42.808;23.408;2022-08-04T14:46:25;3.10;;;2.80;;
24279;SDS011;12395;42.808;23.408;2022-08-04T14:51:41;5.07;;;3.10;;
24279;SDS011;12395;42.808;23.408;2022-08-04T14:54:23;5.43;;;2.95;;
24279;SDS011;12395;42.808;23.408;2022-08-04T14:57:03;3.10;;;2.80;;
24279;SDS011;12395;42.808;23.408;2022-08-04T15:02:06;3.45;;;2.83;;
24279;SDS011;12395;42.808;23.408;2022-08-04T15:04:32;3.10;;;2.80;;
24279;SDS011;12395;42.808;23.408;2022-08-04T15:06:58;4.18;;;3.15;;
24279;SDS011;12395;42.808;23.408;2022-08-04T15:09:25;7.15;;;5.10;;
24279;SDS011;12395;42.808;23.408;2022-08-04T15:11:51;3.30;;;3.00;;
24279;SDS011;12395;42.808;23.408;2022-08-04T15:14:17;5.13;;;3.10;;
24279;SDS011;12395;42.808;23.408;2022-08-04T15:16:43;4.18;;;2.95;;
24279;SDS011;12395;42.808;23.408;2022-08-04T15:19:09;4.38;;;3.00;;
24279;SDS011;12395;42.808;23.408;2022-08-04T15:21:34;4.10;;;3.00;;
24279;SDS011;12395;42.808;23.408;2022-08-04T15:24:00;4.78;;;3.20;;
24279;SDS011;12395;42.808;23.408;2022-08-04T15:26:27;3.35;;;3.05;;
24279;SDS011;12395;42.808;23.408;2022-08-04T15:29:10;4.20;;;2.90;;
24279;SDS011;12395;42.808;23.408;2022-08-04T15:31:38;3.55;;;2.88;;
24279;SDS011;12395;42.808;23.408;2022-08-04T15:34:09;2.88;;;2.58;;
24279;SDS011;12395;42.808;23.408;2022-08-04T15:39:34;3.83;;;2.90;;
24279;SDS011;12395;42.808;23.408;2022-08-04T15:45:11;4.25;;;3.05;;
24279;SDS011;12395;42.808;23.408;2022-08-04T15:47:39;4.35;;;2.92;;
24279;SDS011;12395;42.808;23.408;2022-08-04T15:50:09;4.20;;;2.97;;
24279;SDS011;12395;42.808;23.408;2022-08-04T16:21:48;3.25;;;2.90;;
24279;SDS011;12395;42.808;23.408;2022-08-04T16:24:37;4.15;;;3.10;;
24279;SDS011;12395;42.808;23.408;2022-08-04T16:27:13;3.10;;;2.80;;
24279;SDS011;12395;42.808;23.408;2022-08-04T16:34:55;3.55;;;3.00;;
24279;SDS011;12395;42.808;23.408;2022-08-04T16:37:31;6.90;;;3.20;;
24279;SDS011;12395;42.808;23.408;2022-08-04T16:42:52;3.75;;;2.95;;
24279;SDS011;12395;42.808;23.408;2022-08-04T16:45:22;4.05;;;3.33;;
24279;SDS011;12395;42.808;23.408;2022-08-04T16:48:05;3.20;;;2.90;;
24279;SDS011;12395;42.808;23.408;2022-08-04T16:50:32;3.92;;;2.90;;
24279;SDS011;12395;42.808;23.408;2022-08-04T16:53:09;3.43;;;2.73;;
24279;SDS011;12395;42.808;23.408;2022-08-04T16:55:36;5.47;;;3.22;;
24279;SDS011;12395;42.808;23.408;2022-08-04T16:58:03;3.58;;;3.08;;
24279;SDS011;12395;42.808;23.408;2022-08-04T17:00:29;5.47;;;3.00;;
24279;SDS011;12395;42.808;23.408;2022-08-04T17:02:56;4.53;;;3.28;;
24279;SDS011;12395;42.808;23.408;2022-08-04T17:05:25;3.33;;;3.03;;
24279;SDS011;12395;42.808;23.408;2022-08-04T17:07:51;4.75;;;3.28;;
24279;SDS011;12395;42.808;23.408;2022-08-04T17:10:19;4.55;;;3.40;;
24279;SDS011;12395;42.808;23.408;2022-08-04T17:15:51;4.10;;;3.25;;
24279;SDS011;12395;42.808;23.408;2022-08-04T17:18:22;4.57;;;3.15;;
24279;SDS011;12395;42.808;23.408;2022-08-04T17:20:49;4.13;;;3.30;;
24279;SDS011;12395;42.808;23.408;2022-08-04T17:23:23;5.05;;;3.25;;
24279;SDS011;12395;42.808;23.408;2022-08-04T17:26:23;4.07;;;3.20;;
24279;SDS011;12395;42.808;23.408;2022-08-04T17:28:44;5.28;;;3.30;;
24279;SDS011;12395;42.808;23.408;2022-08-04T17:31:11;4.55;;;3.20;;
24279;SDS011;12395;42.808;23.408;2022-08-04T17:33:37;3.88;;;3.20;;
24279;SDS011;12395;42.808;23.408;2022-08-04T17:36:04;5.45;;;3.22;;
24279;SDS011;12395;42.808;23.408;2022-08-04T17:41:03;5.65;;;3.58;;
24279;SDS011;12395;42.808;23.408;2022-08-04T17:43:36;5.05;;;3.55;;
24279;SDS011;12395;42.808;23.408;2022-08-04T17:46:23;3.80;;;3.40;;
24279;SDS011;12395;42.808;23.408;2022-08-04T17:51:30;4.53;;;3.15;;
24279;SDS011;12395;42.808;23.408;2022-08-04T17:54:02;4.30;;;3.38;;
24279;SDS011;12395;42.808;23.408;2022-08-04T17:59:16;5.05;;;3.33;;
24279;SDS011;12395;42.808;23.408;2022-08-04T18:06:54;4.90;;;3.50;;
24279;SDS011;12395;42.808;23.408;2022-08-04T18:09:25;5.95;;;4.32;;
24279;SDS011;12395;42.808;23.408;2022-08-04T18:11:59;4.20;;;3.45;;
24279;SDS011;12395;42.808;23.408;2022-08-04T18:14:36;3.95;;;3.42;;
24279;SDS011;12395;42.808;23.408;2022-08-04T18:17:03;4.93;;;3.58;;
24279;SDS011;12395;42.808;23.408;2022-08-04T18:19:29;4.70;;;3.55;;
24279;SDS011;12395;42.808;23.408;2022-08-04T18:21:55;4.20;;;3.40;;
24279;SDS011;12395;42.808;23.408;2022-08-04T18:24:20;5.07;;;3.50;;
24279;SDS011;12395;42.808;23.408;2022-08-04T18:26:46;3.75;;;3.20;;
24279;SDS011;12395;42.808;23.408;2022-08-04T18:29:12;5.13;;;3.50;;
24279;SDS011;12395;42.808;23.408;2022-08-04T18:31:38;5.03;;;3.63;;
24279;SDS011;12395;42.808;23.408;2022-08-04T18:34:06;4.95;;;3.40;;
24279;SDS011;12395;42.808;23.408;2022-08-04T18:36:33;5.95;;;3.90;;
24279;SDS011;12395;42.808;23.408;2022-08-04T18:39:00;3.92;;;3.40;;
24279;SDS011;12395;42.808;23.408;2022-08-04T18:41:27;5.22;;;3.50;;
24279;SDS011;12395;42.808;23.408;2022-08-04T18:43:53;4.75;;;3.58;;
24279;SDS011;12395;42.808;23.408;2022-08-04T18:46:19;5.27;;;3.50;;
24279;SDS011;12395;42.808;23.408;2022-08-04T18:48:45;5.32;;;3.55;;
24279;SDS011;12395;42.808;23.408;2022-08-04T18:51:10;4.50;;;3.70;;
24279;SDS011;12395;42.808;23.408;2022-08-04T18:53:35;5.25;;;3.45;;
24279;SDS011;12395;42.808;23.408;2022-08-04T18:56:01;6.90;;;3.60;;
24279;SDS011;12395;42.808;23.408;2022-08-04T18:58:28;4.03;;;3.58;;
24279;SDS011;12395;42.808;23.408;2022-08-04T19:00:54;5.25;;;3.70;;
24279;SDS011;12395;42.808;23.408;2022-08-04T19:03:20;4.90;;;3.60;;
24279;SDS011;12395;42.808;23.408;2022-08-04T19:05:45;5.10;;;3.67;;
24279;SDS011;12395;42.808;23.408;2022-08-04T19:08:11;6.20;;;3.70;;
24279;SDS011;12395;42.808;23.408;2022-08-04T19:10:36;4.45;;;3.50;;
24279;SDS011;12395;42.808;23.408;2022-08-04T19:13:02;4.18;;;3.28;;
24279;SDS011;12395;42.808;23.408;2022-08-04T19:15:27;6.80;;;3.42;;
24279;SDS011;12395;42.808;23.408;2022-08-04T19:17:55;5.38;;;3.60;;
24279;SDS011;12395;42.808;23.408;2022-08-04T19:20:20;4.40;;;3.60;;
24279;SDS011;12395;42.808;23.408;2022-08-04T19:22:46;5.20;;;3.50;;
24279;SDS011;12395;42.808;23.408;2022-08-04T19:25:11;5.45;;;3.75;;
24279;SDS011;12395;42.808;23.408;2022-08-04T19:27:36;4.25;;;3.50;;
24279;SDS011;12395;42.808;23.408;2022-08-04T19:30:02;7.72;;;3.60;;
24279;SDS011;12395;42.808;23.408;2022-08-04T19:32:28;4.72;;;3.50;;
24279;SDS011;12395;42.808;23.408;2022-08-04T19:34:53;5.20;;;3.50;;
24279;SDS011;12395;42.808;23.408;2022-08-04T19:37:19;8.80;;;3.63;;
24279;SDS011;12395;42.808;23.408;2022-08-04T19:39:44;4.57;;;3.25;;
24279;SDS011;12395;42.808;23.408;2022-08-04T19:42:09;5.72;;;3.80;;
24279;SDS011;12395;42.808;23.408;2022-08-04T19:44:35;5.68;;;3.65;;
24279;SDS011;12395;42.808;23.408;2022-08-04T19:47:00;5.18;;;3.70;;
24279;SDS011;12395;42.808;23.408;2022-08-04T19:49:26;4.63;;;3.50;;
24279;SDS011;12395;42.808;23.408;2022-08-04T19:51:51;4.63;;;3.40;;
24279;SDS011;12395;42.808;23.408;2022-08-04T19:54:17;4.32;;;3.45;;
24279;SDS011;12395;42.808;23.408;2022-08-04T19:56:42;4.75;;;3.45;;
24279;SDS011;12395;42.808;23.408;2022-08-04T19:59:10;3.70;;;3.28;;
24279;SDS011;12395;42.808;23.408;2022-08-04T20:01:36;4.38;;;3.45;;
24279;SDS011;12395;42.808;23.408;2022-08-04T20:04:02;5.05;;;3.40;;
24279;SDS011;12395;42.808;23.408;2022-08-04T20:06:28;4.70;;;3.47;;
24279;SDS011;12395;42.808;23.408;2022-08-04T20:08:54;4.38;;;3.40;;
24279;SDS011;12395;42.808;23.408;2022-08-04T20:11:19;4.57;;;3.72;;
24279;SDS011;12395;42.808;23.408;2022-08-04T20:13:45;5.40;;;3.65;;
24279;SDS011;12395;42.808;23.408;2022-08-04T20:16:11;6.53;;;3.95;;
24279;SDS011;12395;42.808;23.408;2022-08-04T20:18:36;6.43;;;4.00;;
24279;SDS011;12395;42.808;23.408;2022-08-04T20:21:02;4.55;;;3.75;;
24279;SDS011;12395;42.808;23.408;2022-08-04T20:26:14;5.05;;;3.83;;
24279;SDS011;12395;42.808;23.408;2022-08-04T20:28:39;6.43;;;3.67;;
24279;SDS011;12395;42.808;23.408;2022-08-04T20:31:05;4.90;;;3.85;;
24279;SDS011;12395;42.808;23.408;2022-08-04T20:33:31;4.95;;;3.78;;
24279;SDS011;12395;42.808;23.408;2022-08-04T20:35:56;4.55;;;3.30;;
24279;SDS011;12395;42.808;23.408;2022-08-04T20:38:22;5.32;;;3.58;;
24279;SDS011;12395;42.808;23.408;2022-08-04T20:40:47;5.57;;;3.40;;
24279;SDS011;12395;42.808;23.408;2022-08-04T20:43:13;4.80;;;3.60;;
24279;SDS011;12395;42.808;23.408;2022-08-04T20:45:39;4.57;;;3.47;;
24279;SDS011;12395;42.808;23.408;2022-08-04T20:48:04;5.70;;;3.88;;
24279;SDS011;12395;42.808;23.408;2022-08-04T20:50:30;4.45;;;3.38;;
24279;SDS011;12395;42.808;23.408;2022-08-04T20:52:55;4.97;;;3.67;;
24279;SDS011;12395;42.808;23.408;2022-08-04T20:55:21;4.80;;;3.50;;